Yeager Airport
KCRW : now visible

Airfield :











YOU CAN JOIN US ON...

 
LOGIN :

Register | Disclaimer

   EN    FR    IT 

 









Legend :    VFR   Marginal VFR   IFR   Intensive IFR   Very Intensive IFR
Visi :
Ceiling :
>= 8 km
>= 3000ft
5 to 8 km
1000 to 3000 ft
1500m to 5 km
500 to 1000 ft
800 to 1500m
200 to 500 ft
< 800m
< 200 ft
Symbols :   Thunderstorms  Fog  Heavy snow  Heavy precipitations  Wind > 20 kt






- Airport Elevation : 981 ft
- IATA code : CRW


KCRW - Yeager

CURRENT METAR :
  • 261054Z 00000KT 10SM OVC050 17/12 A3003 RMK AO2 SLP163 T01720122 $

EXPIRED METARs :
  • 260954Z 12003KT 10SM OVC049 17/16 A3003 RMK AO2 SLP161 T01720156 $
  • 260854Z 00000KT 10SM OVC050 17/16 A3002 RMK AO2 SLP157 T01720161 53002 $

TAF KCRW
Valid from the 26 at 09:00 until the 27 at 06:00 UTC


260857Z 2609/2706 00000KT P6SM BKN050
FM261300 00000KT 5SM BR SCT025
FM261400 21002KT P6SM SCT040
FM270000 00000KT P6SM SKC
KZID FIR / North America



MET'MAP, your aeronautical weather chart ! - Copyright ORBIFLY December 2007 - Disclaimer

ORBIFLY MET'MAP TEAM :

Programming & Development : Alexandra Zaïnal
Concept & original design : Baudouin d'Aumeries
Assistance for programming : Marc-Olivier Méhu
Technical & hardware support : Manuel Goepfert

Contact : metmap@orbifly.com




SOURCES & CREDITS :

   NOAA       Earth
Advisory